sensor_id;sensor_type;location;lat;lon;timestamp;pressure;altitude;pressure_sealevel;temperature;humidity
80382;BME280;69692;55.820;37.490;2023-05-29T00:01:57;100030.22;;;10.22;76.02
80382;BME280;69692;55.820;37.490;2023-05-29T00:04:23;100025.09;;;10.13;76.11
80382;BME280;69692;55.820;37.490;2023-05-29T00:06:56;100025.69;;;10.15;76.47
80382;BME280;69692;55.820;37.490;2023-05-29T00:09:22;100031.09;;;10.09;76.31
80382;BME280;69692;55.820;37.490;2023-05-29T00:11:48;100030.13;;;10.03;76.72
80382;BME280;69692;55.820;37.490;2023-05-29T00:14:18;100034.28;;;9.99;76.93
80382;BME280;69692;55.820;37.490;2023-05-29T00:16:45;100028.13;;;9.92;76.82
80382;BME280;69692;55.820;37.490;2023-05-29T00:19:13;100038.66;;;9.94;76.81
80382;BME280;69692;55.820;37.490;2023-05-29T00:21:39;100033.28;;;9.94;76.82
80382;BME280;69692;55.820;37.490;2023-05-29T00:24:06;100035.34;;;9.92;76.81
80382;BME280;69692;55.820;37.490;2023-05-29T00:26:32;100036.19;;;9.92;76.85
80382;BME280;69692;55.820;37.490;2023-05-29T00:28:58;100040.94;;;9.90;77.35
80382;BME280;69692;55.820;37.490;2023-05-29T00:31:24;100039.69;;;9.93;76.70
80382;BME280;69692;55.820;37.490;2023-05-29T00:33:50;100041.94;;;9.96;77.01
80382;BME280;69692;55.820;37.490;2023-05-29T00:36:15;100042.13;;;10.01;76.76
80382;BME280;69692;55.820;37.490;2023-05-29T00:38:42;100038.03;;;9.98;77.25
80382;BME280;69692;55.820;37.490;2023-05-29T00:41:14;100041.75;;;9.97;77.03
80382;BME280;69692;55.820;37.490;2023-05-29T00:43:41;100045.88;;;9.93;76.95
80382;BME280;69692;55.820;37.490;2023-05-29T00:46:08;100049.66;;;9.85;77.09
80382;BME280;69692;55.820;37.490;2023-05-29T00:48:34;100050.06;;;9.89;76.65
80382;BME280;69692;55.820;37.490;2023-05-29T00:51:00;100039.09;;;9.91;76.68
80382;BME280;69692;55.820;37.490;2023-05-29T00:53:26;100049.00;;;9.90;76.57
80382;BME280;69692;55.820;37.490;2023-05-29T00:55:52;100055.44;;;9.89;77.21
80382;BME280;69692;55.820;37.490;2023-05-29T00:58:20;100045.94;;;9.86;77.04
80382;BME280;69692;55.820;37.490;2023-05-29T01:00:46;100051.53;;;9.85;76.88
80382;BME280;69692;55.820;37.490;2023-05-29T01:03:12;100051.56;;;9.78;77.10
80382;BME280;69692;55.820;37.490;2023-05-29T01:05:43;100052.66;;;9.71;77.17
80382;BME280;69692;55.820;37.490;2023-05-29T01:08:09;100059.28;;;9.68;77.41
80382;BME280;69692;55.820;37.490;2023-05-29T01:10:35;100056.16;;;9.71;76.32
80382;BME280;69692;55.820;37.490;2023-05-29T01:13:06;100058.78;;;9.78;76.22
80382;BME280;69692;55.820;37.490;2023-05-29T01:15:43;100062.72;;;9.82;76.78
80382;BME280;69692;55.820;37.490;2023-05-29T01:18:38;100063.94;;;9.79;76.89
80382;BME280;69692;55.820;37.490;2023-05-29T01:21:14;100057.72;;;9.85;76.83
80382;BME280;69692;55.820;37.490;2023-05-29T01:23:59;100068.25;;;9.87;77.04
80382;BME280;69692;55.820;37.490;2023-05-29T01:29:10;100079.03;;;9.87;76.90
80382;BME280;69692;55.820;37.490;2023-05-29T01:31:39;100071.56;;;9.89;75.44
80382;BME280;69692;55.820;37.490;2023-05-29T01:34:07;100070.28;;;9.92;76.12
80382;BME280;69692;55.820;37.490;2023-05-29T01:36:33;100066.56;;;9.93;76.61
80382;BME280;69692;55.820;37.490;2023-05-29T01:38:59;100068.66;;;9.91;76.29
80382;BME280;69692;55.820;37.490;2023-05-29T01:41:26;100069.25;;;9.93;76.49
80382;BME280;69692;55.820;37.490;2023-05-29T01:43:53;100069.03;;;9.94;76.14
80382;BME280;69692;55.820;37.490;2023-05-29T01:46:40;100076.25;;;10.00;76.12
80382;BME280;69692;55.820;37.490;2023-05-29T01:49:26;100071.69;;;10.01;76.89
80382;BME280;69692;55.820;37.490;2023-05-29T01:51:53;100077.31;;;9.99;76.17
80382;BME280;69692;55.820;37.490;2023-05-29T01:54:19;100071.88;;;10.06;74.13
80382;BME280;69692;55.820;37.490;2023-05-29T01:56:46;100063.78;;;10.12;73.71
80382;BME280;69692;55.820;37.490;2023-05-29T01:59:13;100075.50;;;10.18;75.37
80382;BME280;69692;55.820;37.490;2023-05-29T02:01:39;100077.38;;;10.18;76.12
80382;BME280;69692;55.820;37.490;2023-05-29T02:04:05;100068.88;;;10.21;74.44
80382;BME280;69692;55.820;37.490;2023-05-29T02:06:31;100072.00;;;10.18;75.32
80382;BME280;69692;55.820;37.490;2023-05-29T02:08:58;100064.75;;;10.18;76.32
80382;BME280;69692;55.820;37.490;2023-05-29T02:11:25;100071.41;;;10.15;76.43
80382;BME280;69692;55.820;37.490;2023-05-29T02:13:54;100072.59;;;10.20;74.95
80382;BME280;69692;55.820;37.490;2023-05-29T02:16:20;100072.16;;;10.29;74.05
80382;BME280;69692;55.820;37.490;2023-05-29T02:18:47;100074.56;;;10.37;73.51
80382;BME280;69692;55.820;37.490;2023-05-29T02:21:33;100077.81;;;10.46;72.68
80382;BME280;69692;55.820;37.490;2023-05-29T02:23:58;100072.97;;;10.55;71.96
80382;BME280;69692;55.820;37.490;2023-05-29T02:26:24;100074.44;;;10.57;71.61
80382;BME280;69692;55.820;37.490;2023-05-29T02:28:51;100079.75;;;10.64;71.16
80382;BME280;69692;55.820;37.490;2023-05-29T02:31:17;100077.88;;;10.64;70.78
80382;BME280;69692;55.820;37.490;2023-05-29T02:33:42;100079.69;;;10.70;70.62
80382;BME280;69692;55.820;37.490;2023-05-29T02:36:08;100082.56;;;10.75;70.72
80382;BME280;69692;55.820;37.490;2023-05-29T02:38:37;100083.75;;;10.80;71.00
80382;BME280;69692;55.820;37.490;2023-05-29T02:41:03;100077.91;;;10.83;71.83
80382;BME280;69692;55.820;37.490;2023-05-29T02:43:29;100079.16;;;10.87;71.56
80382;BME280;69692;55.820;37.490;2023-05-29T02:45:54;100078.47;;;10.91;71.17
80382;BME280;69692;55.820;37.490;2023-05-29T02:48:43;100074.50;;;10.94;71.08
80382;BME280;69692;55.820;37.490;2023-05-29T02:51:11;100081.09;;;10.98;71.43
80382;BME280;69692;55.820;37.490;2023-05-29T02:53:36;100077.13;;;11.00;70.86
80382;BME280;69692;55.820;37.490;2023-05-29T02:56:02;100083.03;;;11.09;70.43
80382;BME280;69692;55.820;37.490;2023-05-29T02:58:29;100083.63;;;11.11;70.89
80382;BME280;69692;55.820;37.490;2023-05-29T03:00:55;100087.53;;;11.15;70.33
80382;BME280;69692;55.820;37.490;2023-05-29T03:03:20;100086.88;;;11.20;69.48
80382;BME280;69692;55.820;37.490;2023-05-29T03:05:46;100082.00;;;11.28;69.58
80382;BME280;69692;55.820;37.490;2023-05-29T03:08:12;100091.31;;;11.32;69.22
80382;BME280;69692;55.820;37.490;2023-05-29T03:10:38;100094.38;;;11.36;68.28
80382;BME280;69692;55.820;37.490;2023-05-29T03:13:04;100101.75;;;11.41;68.54
80382;BME280;69692;55.820;37.490;2023-05-29T03:15:32;100100.06;;;11.46;67.75
80382;BME280;69692;55.820;37.490;2023-05-29T03:17:57;100100.44;;;11.50;67.32
80382;BME280;69692;55.820;37.490;2023-05-29T03:20:27;100104.41;;;11.47;66.92
80382;BME280;69692;55.820;37.490;2023-05-29T03:22:56;100102.06;;;11.51;67.38
80382;BME280;69692;55.820;37.490;2023-05-29T03:25:22;100112.75;;;11.57;67.21
80382;BME280;69692;55.820;37.490;2023-05-29T03:27:48;100103.56;;;11.65;66.62
80382;BME280;69692;55.820;37.490;2023-05-29T03:30:18;100111.09;;;11.75;66.25
80382;BME280;69692;55.820;37.490;2023-05-29T03:32:46;100110.72;;;11.89;65.67
80382;BME280;69692;55.820;37.490;2023-05-29T03:35:12;100106.09;;;11.97;65.16
80382;BME280;69692;55.820;37.490;2023-05-29T03:37:41;100116.78;;;12.03;65.02
80382;BME280;69692;55.820;37.490;2023-05-29T03:40:07;100118.34;;;12.11;64.22
80382;BME280;69692;55.820;37.490;2023-05-29T03:42:34;100112.84;;;12.17;64.09
80382;BME280;69692;55.820;37.490;2023-05-29T03:45:01;100107.94;;;12.26;63.65
80382;BME280;69692;55.820;37.490;2023-05-29T03:47:30;100112.81;;;12.36;63.39
80382;BME280;69692;55.820;37.490;2023-05-29T03:49:56;100113.75;;;12.41;63.27
80382;BME280;69692;55.820;37.490;2023-05-29T03:52:22;100114.09;;;12.45;62.93
80382;BME280;69692;55.820;37.490;2023-05-29T03:54:48;100119.75;;;12.55;62.75
80382;BME280;69692;55.820;37.490;2023-05-29T03:57:15;100115.88;;;12.63;62.22
80382;BME280;69692;55.820;37.490;2023-05-29T03:59:52;100119.78;;;12.67;62.41
80382;BME280;69692;55.820;37.490;2023-05-29T04:02:18;100116.63;;;12.70;62.47
80382;BME280;69692;55.820;37.490;2023-05-29T04:04:44;100130.97;;;12.82;61.25
80382;BME280;69692;55.820;37.490;2023-05-29T04:07:11;100130.94;;;12.94;61.35
80382;BME280;69692;55.820;37.490;2023-05-29T04:09:36;100132.00;;;13.04;60.35
80382;BME280;69692;55.820;37.490;2023-05-29T04:12:02;100126.84;;;13.14;60.42
80382;BME280;69692;55.820;37.490;2023-05-29T04:14:28;100133.56;;;13.24;59.47
80382;BME280;69692;55.820;37.490;2023-05-29T04:16:55;100131.91;;;13.34;59.15
80382;BME280;69692;55.820;37.490;2023-05-29T04:19:23;100132.06;;;13.39;58.34
80382;BME280;69692;55.820;37.490;2023-05-29T04:21:48;100132.72;;;13.47;58.37
80382;BME280;69692;55.820;37.490;2023-05-29T04:24:15;100140.25;;;13.56;58.01
80382;BME280;69692;55.820;37.490;2023-05-29T04:26:40;100138.22;;;13.63;57.38
80382;BME280;69692;55.820;37.490;2023-05-29T04:29:11;100133.31;;;13.60;58.18
80382;BME280;69692;55.820;37.490;2023-05-29T04:31:40;100132.47;;;13.71;57.50
80382;BME280;69692;55.820;37.490;2023-05-29T04:34:05;100138.88;;;13.82;57.94
80382;BME280;69692;55.820;37.490;2023-05-29T04:36:32;100138.75;;;13.89;56.88
80382;BME280;69692;55.820;37.490;2023-05-29T04:39:06;100133.56;;;13.99;55.62
80382;BME280;69692;55.820;37.490;2023-05-29T04:41:33;100137.50;;;14.08;56.27
80382;BME280;69692;55.820;37.490;2023-05-29T04:44:03;100145.81;;;14.18;57.06
80382;BME280;69692;55.820;37.490;2023-05-29T04:46:38;100146.03;;;14.28;55.20
80382;BME280;69692;55.820;37.490;2023-05-29T04:49:04;100146.78;;;14.41;55.94
80382;BME280;69692;55.820;37.490;2023-05-29T04:51:30;100145.59;;;14.48;56.41
80382;BME280;69692;55.820;37.490;2023-05-29T04:53:56;100145.44;;;14.55;56.48
80382;BME280;69692;55.820;37.490;2023-05-29T04:56:23;100139.38;;;14.65;55.69
80382;BME280;69692;55.820;37.490;2023-05-29T04:58:49;100151.69;;;14.72;54.75
80382;BME280;69692;55.820;37.490;2023-05-29T05:01:15;100145.13;;;14.68;54.85
80382;BME280;69692;55.820;37.490;2023-05-29T05:03:41;100158.28;;;14.76;55.47
80382;BME280;69692;55.820;37.490;2023-05-29T05:06:07;100145.69;;;14.87;54.59
80382;BME280;69692;55.820;37.490;2023-05-29T05:08:34;100149.91;;;14.95;54.91
80382;BME280;69692;55.820;37.490;2023-05-29T05:11:00;100151.13;;;15.04;54.79
80382;BME280;69692;55.820;37.490;2023-05-29T05:13:27;100155.63;;;15.15;54.90
80382;BME280;69692;55.820;37.490;2023-05-29T05:15:54;100155.72;;;15.20;53.48
80382;BME280;69692;55.820;37.490;2023-05-29T05:18:20;100153.91;;;15.09;51.75
80382;BME280;69692;55.820;37.490;2023-05-29T05:20:54;100159.09;;;15.10;52.64
80382;BME280;69692;55.820;37.490;2023-05-29T05:23:20;100154.91;;;15.19;52.93
80382;BME280;69692;55.820;37.490;2023-05-29T05:25:47;100153.63;;;15.27;52.63
80382;BME280;69692;55.820;37.490;2023-05-29T05:28:13;100153.22;;;15.35;52.30
80382;BME280;69692;55.820;37.490;2023-05-29T05:30:39;100153.69;;;15.49;52.74
80382;BME280;69692;55.820;37.490;2023-05-29T05:33:05;100148.78;;;15.63;52.68
80382;BME280;69692;55.820;37.490;2023-05-29T05:35:31;100145.66;;;15.76;52.33
80382;BME280;69692;55.820;37.490;2023-05-29T05:37:57;100150.41;;;15.86;51.79
80382;BME280;69692;55.820;37.490;2023-05-29T05:40:25;100149.06;;;15.88;51.57
80382;BME280;69692;55.820;37.490;2023-05-29T05:42:57;100156.25;;;15.99;50.62
80382;BME280;69692;55.820;37.490;2023-05-29T05:45:39;100151.53;;;16.12;48.27
80382;BME280;69692;55.820;37.490;2023-05-29T05:48:08;100148.41;;;16.25;48.10
80382;BME280;69692;55.820;37.490;2023-05-29T05:50:35;100146.88;;;16.34;47.74
80382;BME280;69692;55.820;37.490;2023-05-29T05:53:01;100159.44;;;16.40;48.35
80382;BME280;69692;55.820;37.490;2023-05-29T05:55:27;100156.50;;;16.47;47.57
80382;BME280;69692;55.820;37.490;2023-05-29T05:57:54;100156.59;;;16.57;47.13
80382;BME280;69692;55.820;37.490;2023-05-29T06:00:24;100155.91;;;16.66;47.56
80382;BME280;69692;55.820;37.490;2023-05-29T06:02:55;100158.25;;;16.58;44.17
80382;BME280;69692;55.820;37.490;2023-05-29T06:05:36;100155.53;;;16.58;43.00
80382;BME280;69692;55.820;37.490;2023-05-29T06:08:03;100157.75;;;16.66;43.43
80382;BME280;69692;55.820;37.490;2023-05-29T06:10:29;100156.22;;;16.70;44.27
80382;BME280;69692;55.820;37.490;2023-05-29T06:12:56;100164.22;;;16.82;43.88
80382;BME280;69692;55.820;37.490;2023-05-29T06:15:28;100164.00;;;16.93;43.95
80382;BME280;69692;55.820;37.490;2023-05-29T06:17:54;100162.19;;;17.04;42.92
80382;BME280;69692;55.820;37.490;2023-05-29T06:20:21;100147.34;;;17.17;42.65
80382;BME280;69692;55.820;37.490;2023-05-29T06:22:49;100155.88;;;17.31;41.50
80382;BME280;69692;55.820;37.490;2023-05-29T06:25:18;100156.44;;;17.38;40.33
80382;BME280;69692;55.820;37.490;2023-05-29T06:27:47;100159.22;;;17.43;39.50
80382;BME280;69692;55.820;37.490;2023-05-29T06:30:13;100150.00;;;17.49;40.12
80382;BME280;69692;55.820;37.490;2023-05-29T06:32:39;100159.31;;;17.63;41.02
80382;BME280;69692;55.820;37.490;2023-05-29T06:35:07;100156.41;;;17.75;40.04
80382;BME280;69692;55.820;37.490;2023-05-29T06:37:33;100159.16;;;17.80;38.38
80382;BME280;69692;55.820;37.490;2023-05-29T06:39:59;100161.88;;;17.85;39.14
80382;BME280;69692;55.820;37.490;2023-05-29T06:42:25;100173.47;;;18.28;55.26
80382;BME280;69692;55.820;37.490;2023-05-29T06:44:57;100166.19;;;19.45;56.92
80382;BME280;69692;55.820;37.490;2023-05-29T06:47:23;100160.00;;;20.09;35.82
80382;BME280;69692;55.820;37.490;2023-05-29T06:49:49;100164.03;;;19.57;32.55
80382;BME280;69692;55.820;37.490;2023-05-29T06:52:15;100170.06;;;19.24;34.09
80382;BME280;69692;55.820;37.490;2023-05-29T06:55:00;100170.63;;;18.90;33.98
80382;BME280;69692;55.820;37.490;2023-05-29T06:57:28;100167.31;;;18.73;35.26
80382;BME280;69692;55.820;37.490;2023-05-29T06:59:54;100162.91;;;18.57;34.41
80382;BME280;69692;55.820;37.490;2023-05-29T07:02:20;100169.47;;;18.51;35.69
80382;BME280;69692;55.820;37.490;2023-05-29T07:04:51;100170.56;;;18.55;36.11
80382;BME280;69692;55.820;37.490;2023-05-29T07:07:17;100165.97;;;18.65;36.06
80382;BME280;69692;55.820;37.490;2023-05-29T07:09:43;100166.78;;;18.66;35.94
80382;BME280;69692;55.820;37.490;2023-05-29T07:12:09;100162.66;;;18.53;35.14
80382;BME280;69692;55.820;37.490;2023-05-29T07:14:36;100167.59;;;18.61;34.13
80382;BME280;69692;55.820;37.490;2023-05-29T07:17:02;100171.63;;;18.38;33.89
80382;BME280;69692;55.820;37.490;2023-05-29T07:19:27;100166.16;;;18.33;33.77
80382;BME280;69692;55.820;37.490;2023-05-29T07:21:55;100170.97;;;18.11;34.52
80382;BME280;69692;55.820;37.490;2023-05-29T07:24:22;100166.63;;;18.10;34.94
80382;BME280;69692;55.820;37.490;2023-05-29T07:26:49;100164.50;;;18.17;33.92
80382;BME280;69692;55.820;37.490;2023-05-29T07:29:14;100166.75;;;18.45;34.50
80382;BME280;69692;55.820;37.490;2023-05-29T07:31:42;100160.69;;;18.28;33.91
80382;BME280;69692;55.820;37.490;2023-05-29T07:34:08;100158.03;;;18.54;34.77
80382;BME280;69692;55.820;37.490;2023-05-29T07:36:34;100157.25;;;18.94;34.45
80382;BME280;69692;55.820;37.490;2023-05-29T07:39:05;100160.25;;;19.23;33.45
80382;BME280;69692;55.820;37.490;2023-05-29T07:41:33;100153.66;;;19.54;32.89
80382;BME280;69692;55.820;37.490;2023-05-29T07:44:00;100139.34;;;19.88;31.58
80382;BME280;69692;55.820;37.490;2023-05-29T07:46:26;100138.88;;;20.25;31.68
80382;BME280;69692;55.820;37.490;2023-05-29T07:49:01;100142.81;;;20.58;31.41
80382;BME280;69692;55.820;37.490;2023-05-29T07:51:27;100140.75;;;20.74;30.34
80382;BME280;69692;55.820;37.490;2023-05-29T07:53:54;100151.47;;;20.70;30.84
80382;BME280;69692;55.820;37.490;2023-05-29T07:56:20;100147.06;;;20.74;31.89
80382;BME280;69692;55.820;37.490;2023-05-29T07:58:47;100147.63;;;20.71;32.04
80382;BME280;69692;55.820;37.490;2023-05-29T08:01:13;100153.22;;;20.51;31.88
80382;BME280;69692;55.820;37.490;2023-05-29T08:03:43;100157.00;;;20.60;33.02
80382;BME280;69692;55.820;37.490;2023-05-29T08:06:16;100155.22;;;20.79;29.83
80382;BME280;69692;55.820;37.490;2023-05-29T08:08:42;100158.06;;;20.64;29.83
80382;BME280;69692;55.820;37.490;2023-05-29T08:11:10;100153.69;;;20.63;30.33
80382;BME280;69692;55.820;37.490;2023-05-29T08:13:36;100153.38;;;20.70;30.11
80382;BME280;69692;55.820;37.490;2023-05-29T08:16:02;100152.44;;;20.84;30.40
80382;BME280;69692;55.820;37.490;2023-05-29T08:18:30;100153.75;;;20.92;29.57
80382;BME280;69692;55.820;37.490;2023-05-29T08:20:57;100149.91;;;20.59;29.63
80382;BME280;69692;55.820;37.490;2023-05-29T08:23:23;100164.25;;;20.31;29.50
80382;BME280;69692;55.820;37.490;2023-05-29T08:25:49;100152.28;;;20.27;28.90
80382;BME280;69692;55.820;37.490;2023-05-29T08:28:15;100156.94;;;20.21;29.84
80382;BME280;69692;55.820;37.490;2023-05-29T08:30:41;100151.59;;;20.50;29.17
80382;BME280;69692;55.820;37.490;2023-05-29T08:33:07;100159.66;;;20.70;29.39
80382;BME280;69692;55.820;37.490;2023-05-29T08:35:33;100155.19;;;20.84;29.27
80382;BME280;69692;55.820;37.490;2023-05-29T08:37:59;100153.84;;;21.11;29.22
80382;BME280;69692;55.820;37.490;2023-05-29T08:40:25;100151.09;;;21.11;30.42
80382;BME280;69692;55.820;37.490;2023-05-29T08:43:06;100147.81;;;21.14;29.89
80382;BME280;69692;55.820;37.490;2023-05-29T08:45:42;100141.28;;;21.39;29.46
80382;BME280;69692;55.820;37.490;2023-05-29T08:48:09;100144.84;;;21.39;30.05
80382;BME280;69692;55.820;37.490;2023-05-29T08:50:41;100145.03;;;21.19;29.84
80382;BME280;69692;55.820;37.490;2023-05-29T08:53:09;100146.63;;;20.91;31.44
80382;BME280;69692;55.820;37.490;2023-05-29T08:55:35;100141.56;;;20.74;31.19
80382;BME280;69692;55.820;37.490;2023-05-29T08:58:02;100149.00;;;21.03;30.61
80382;BME280;69692;55.820;37.490;2023-05-29T09:00:28;100150.44;;;21.24;29.84
80382;BME280;69692;55.820;37.490;2023-05-29T09:02:54;100145.03;;;21.19;30.45
80382;BME280;69692;55.820;37.490;2023-05-29T09:05:21;100145.47;;;21.31;30.20
80382;BME280;69692;55.820;37.490;2023-05-29T09:07:47;100141.72;;;21.75;29.49
80382;BME280;69692;55.820;37.490;2023-05-29T09:10:15;100133.66;;;22.26;29.18
80382;BME280;69692;55.820;37.490;2023-05-29T09:12:41;100133.91;;;21.87;28.98
80382;BME280;69692;55.820;37.490;2023-05-29T09:15:17;100122.34;;;21.42;29.49
80382;BME280;69692;55.820;37.490;2023-05-29T09:17:52;100126.25;;;21.84;29.60
80382;BME280;69692;55.820;37.490;2023-05-29T09:20:19;100131.50;;;22.42;28.50
80382;BME280;69692;55.820;37.490;2023-05-29T09:22:58;100118.66;;;22.56;27.75
80382;BME280;69692;55.820;37.490;2023-05-29T09:25:28;100116.78;;;22.89;27.21
80382;BME280;69692;55.820;37.490;2023-05-29T09:28:04;100113.53;;;23.47;26.14
80382;BME280;69692;55.820;37.490;2023-05-29T09:30:45;100106.47;;;24.10;25.52
80382;BME280;69692;55.820;37.490;2023-05-29T09:33:13;100106.41;;;24.37;25.76
80382;BME280;69692;55.820;37.490;2023-05-29T09:35:46;100112.69;;;24.29;24.39
80382;BME280;69692;55.820;37.490;2023-05-29T09:38:14;100108.84;;;24.03;23.41
80382;BME280;69692;55.820;37.490;2023-05-29T09:40:44;100109.94;;;24.16;24.61
80382;BME280;69692;55.820;37.490;2023-05-29T09:43:17;100113.72;;;24.56;24.32
80382;BME280;69692;55.820;37.490;2023-05-29T09:45:49;100110.00;;;24.60;23.49
80382;BME280;69692;55.820;37.490;2023-05-29T09:48:18;100108.44;;;24.68;24.31
80382;BME280;69692;55.820;37.490;2023-05-29T09:50:45;100096.31;;;24.69;25.21
80382;BME280;69692;55.820;37.490;2023-05-29T09:53:21;100099.53;;;24.93;22.51
80382;BME280;69692;55.820;37.490;2023-05-29T09:55:53;100097.28;;;24.95;22.44
80382;BME280;69692;55.820;37.490;2023-05-29T09:58:25;100095.78;;;25.12;22.76
80382;BME280;69692;55.820;37.490;2023-05-29T10:00:52;100096.38;;;25.31;22.56
80382;BME280;69692;55.820;37.490;2023-05-29T10:03:18;100086.66;;;25.34;22.44
80382;BME280;69692;55.820;37.490;2023-05-29T10:05:49;100088.31;;;25.04;23.93
80382;BME280;69692;55.820;37.490;2023-05-29T10:08:18;100089.66;;;25.15;23.51
80382;BME280;69692;55.820;37.490;2023-05-29T10:10:46;100084.28;;;25.10;23.33
80382;BME280;69692;55.820;37.490;2023-05-29T10:13:14;100080.84;;;25.04;23.83
80382;BME280;69692;55.820;37.490;2023-05-29T10:15:45;100079.75;;;24.60;23.67
80382;BME280;69692;55.820;37.490;2023-05-29T10:18:24;100080.53;;;24.38;23.70
80382;BME280;69692;55.820;37.490;2023-05-29T10:20:54;100079.53;;;24.34;24.23
80382;BME280;69692;55.820;37.490;2023-05-29T10:23:25;100083.19;;;24.66;24.25
80382;BME280;69692;55.820;37.490;2023-05-29T10:26:02;100072.31;;;24.25;24.06
80382;BME280;69692;55.820;37.490;2023-05-29T10:28:33;100073.44;;;24.60;24.80
80382;BME280;69692;55.820;37.490;2023-05-29T10:31:09;100081.47;;;24.79;24.51
80382;BME280;69692;55.820;37.490;2023-05-29T10:36:30;100070.13;;;24.72;24.63
80382;BME280;69692;55.820;37.490;2023-05-29T10:38:59;100064.81;;;25.06;24.08
80382;BME280;69692;55.820;37.490;2023-05-29T10:44:02;100063.59;;;24.98;24.85
80382;BME280;69692;55.820;37.490;2023-05-29T10:49:16;100056.31;;;25.25;24.36
80382;BME280;69692;55.820;37.490;2023-05-29T10:51:42;100045.41;;;25.11;22.64
80382;BME280;69692;55.820;37.490;2023-05-29T10:54:08;100051.69;;;24.81;22.75
80382;BME280;69692;55.820;37.490;2023-05-29T10:56:34;100052.75;;;24.93;26.21
80382;BME280;69692;55.820;37.490;2023-05-29T10:59:00;100045.28;;;25.16;23.42
80382;BME280;69692;55.820;37.490;2023-05-29T11:01:30;100044.53;;;25.33;23.73
80382;BME280;69692;55.820;37.490;2023-05-29T11:06:52;100040.31;;;26.10;22.50
80382;BME280;69692;55.820;37.490;2023-05-29T11:14:54;100048.09;;;26.16;21.49
80382;BME280;69692;55.820;37.490;2023-05-29T11:17:42;100042.41;;;25.96;21.70
80382;BME280;69692;55.820;37.490;2023-05-29T11:23:03;100034.16;;;25.30;22.42
80382;BME280;69692;55.820;37.490;2023-05-29T11:25:32;100028.38;;;25.01;23.29
80382;BME280;69692;55.820;37.490;2023-05-29T11:27:59;100032.13;;;25.62;22.94
80382;BME280;69692;55.820;37.490;2023-05-29T11:30:26;100024.25;;;26.12;21.45
80382;BME280;69692;55.820;37.490;2023-05-29T11:32:52;100026.66;;;26.48;22.02
80382;BME280;69692;55.820;37.490;2023-05-29T11:35:22;100022.38;;;25.55;22.73
80382;BME280;69692;55.820;37.490;2023-05-29T11:37:48;100028.22;;;25.54;22.37
80382;BME280;69692;55.820;37.490;2023-05-29T11:40:16;100020.22;;;25.44;21.61
80382;BME280;69692;55.820;37.490;2023-05-29T11:42:44;100026.38;;;25.32;22.47
80382;BME280;69692;55.820;37.490;2023-05-29T11:45:21;100025.53;;;24.92;23.34
80382;BME280;69692;55.820;37.490;2023-05-29T11:48:05;100012.56;;;25.15;24.83
80382;BME280;69692;55.820;37.490;2023-05-29T11:50:32;100013.25;;;25.38;23.49
80382;BME280;69692;55.820;37.490;2023-05-29T11:52:58;100016.72;;;25.04;23.92
80382;BME280;69692;55.820;37.490;2023-05-29T11:55:26;100017.41;;;24.56;23.83
80382;BME280;69692;55.820;37.490;2023-05-29T11:58:10;100015.50;;;24.96;23.62
80382;BME280;69692;55.820;37.490;2023-05-29T12:00:37;99998.19;;;25.44;21.81
80382;BME280;69692;55.820;37.490;2023-05-29T12:03:05;100006.69;;;25.73;22.33
80382;BME280;69692;55.820;37.490;2023-05-29T12:05:44;100003.81;;;26.13;22.03
80382;BME280;69692;55.820;37.490;2023-05-29T12:08:11;100006.06;;;26.28;23.27
80382;BME280;69692;55.820;37.490;2023-05-29T12:10:37;100003.47;;;26.14;21.20
80382;BME280;69692;55.820;37.490;2023-05-29T12:13:03;99993.28;;;26.06;21.61
80382;BME280;69692;55.820;37.490;2023-05-29T12:15:29;99990.66;;;26.01;22.88
80382;BME280;69692;55.820;37.490;2023-05-29T12:17:55;99994.41;;;25.97;22.41
80382;BME280;69692;55.820;37.490;2023-05-29T12:20:24;99989.38;;;25.90;22.16
80382;BME280;69692;55.820;37.490;2023-05-29T12:22:59;99986.94;;;26.06;22.15
80382;BME280;69692;55.820;37.490;2023-05-29T12:25:28;99984.75;;;25.42;22.05
80382;BME280;69692;55.820;37.490;2023-05-29T12:27:58;99994.59;;;24.86;22.47
80382;BME280;69692;55.820;37.490;2023-05-29T12:30:24;99989.66;;;24.44;22.87
80382;BME280;69692;55.820;37.490;2023-05-29T12:32:51;99983.94;;;24.40;23.29
80382;BME280;69692;55.820;37.490;2023-05-29T12:35:22;99979.41;;;24.66;23.35
80382;BME280;69692;55.820;37.490;2023-05-29T12:38:09;99991.13;;;24.05;24.10
80382;BME280;69692;55.820;37.490;2023-05-29T12:40:37;99985.56;;;24.19;23.37
80382;BME280;69692;55.820;37.490;2023-05-29T12:43:06;99988.47;;;24.58;22.62
80382;BME280;69692;55.820;37.490;2023-05-29T12:45:33;99980.53;;;24.57;24.76
80382;BME280;69692;55.820;37.490;2023-05-29T12:48:01;99983.25;;;24.88;22.74
80382;BME280;69692;55.820;37.490;2023-05-29T12:50:29;99977.03;;;25.05;22.71
80382;BME280;69692;55.820;37.490;2023-05-29T12:55:27;99973.09;;;24.66;23.05
80382;BME280;69692;55.820;37.490;2023-05-29T12:57:54;99970.06;;;24.23;23.17
80382;BME280;69692;55.820;37.490;2023-05-29T13:00:21;99967.44;;;23.95;23.76
80382;BME280;69692;55.820;37.490;2023-05-29T13:02:48;99966.78;;;24.34;24.06
80382;BME280;69692;55.820;37.490;2023-05-29T13:05:14;99971.03;;;24.72;23.96
80382;BME280;69692;55.820;37.490;2023-05-29T13:07:41;99955.72;;;24.88;23.62
80382;BME280;69692;55.820;37.490;2023-05-29T13:10:08;99972.06;;;25.15;23.18
80382;BME280;69692;55.820;37.490;2023-05-29T13:12:35;99963.00;;;25.15;23.26
80382;BME280;69692;55.820;37.490;2023-05-29T13:15:01;99967.56;;;24.97;23.45